createdAt,value
2019-01-17T00:02:15.267Z,3.00
2019-01-17T00:05:04.754Z,3.00
2019-01-17T00:08:12.772Z,2.90
2019-01-17T00:10:51.099Z,2.90
2019-01-17T00:13:50.978Z,2.90
2019-01-17T00:16:56.272Z,2.80
2019-01-17T00:19:55.145Z,2.80
2019-01-17T00:22:46.584Z,2.80
2019-01-17T00:25:34.858Z,2.80
2019-01-17T00:28:27.689Z,2.80
2019-01-17T00:31:17.905Z,2.80
2019-01-17T00:34:00.126Z,2.80
2019-01-17T00:36:55.250Z,2.80
2019-01-17T00:39:47.552Z,2.70
2019-01-17T00:42:31.630Z,2.70
2019-01-17T00:45:36.119Z,2.70
2019-01-17T00:48:15.947Z,2.70
2019-01-17T00:51:08.174Z,2.70
2019-01-17T00:53:57.434Z,2.80
2019-01-17T00:56:47.709Z,2.70
2019-01-17T00:59:46.300Z,2.70
2019-01-17T01:02:44.638Z,2.70
2019-01-17T01:05:33.194Z,2.80
2019-01-17T01:08:23.159Z,2.80
2019-01-17T01:11:31.776Z,2.80
2019-01-17T01:14:21.287Z,2.80
2019-01-17T01:17:14.067Z,2.80
2019-01-17T01:20:18.525Z,2.70
2019-01-17T01:23:26.468Z,2.70
2019-01-17T01:26:17.534Z,2.70
2019-01-17T01:29:22.410Z,2.70
2019-01-17T01:32:19.534Z,2.70
2019-01-17T01:35:24.056Z,2.70
2019-01-17T01:38:12.580Z,2.60
2019-01-17T01:40:52.129Z,2.60
2019-01-17T01:43:41.515Z,2.60
2019-01-17T01:46:43.237Z,2.60
2019-01-17T01:49:35.615Z,2.60
2019-01-17T01:52:14.236Z,2.60
2019-01-17T01:54:44.899Z,2.60
2019-01-17T01:57:16.426Z,2.60
2019-01-17T01:59:47.159Z,2.60
2019-01-17T02:02:17.626Z,2.60
2019-01-17T02:04:48.254Z,2.60
2019-01-17T02:07:18.677Z,2.70
2019-01-17T02:09:49.138Z,2.70
2019-01-17T02:12:19.605Z,2.70
2019-01-17T02:14:50.441Z,2.80
2019-01-17T02:17:21.152Z,2.80
2019-01-17T02:19:51.676Z,2.80
2019-01-17T02:22:22.214Z,2.80
2019-01-17T02:24:52.841Z,2.90
2019-01-17T02:27:23.459Z,2.90
2019-01-17T02:29:53.900Z,2.90
2019-01-17T02:32:24.385Z,2.90
2019-01-17T02:34:54.797Z,2.90
2019-01-17T02:37:25.345Z,2.80
2019-01-17T02:39:57.841Z,2.70
2019-01-17T02:42:28.384Z,2.70
2019-01-17T02:44:59.097Z,2.60
2019-01-17T02:47:29.522Z,2.60
2019-01-17T02:50:00.485Z,2.50
2019-01-17T02:52:31.069Z,2.50
2019-01-17T02:55:01.512Z,2.40
2019-01-17T02:57:33.535Z,2.40
2019-01-17T03:00:05.264Z,2.40
2019-01-17T03:02:35.852Z,2.40
2019-01-17T03:05:07.099Z,2.30
2019-01-17T03:07:37.623Z,2.40
2019-01-17T03:10:11.881Z,2.40
2019-01-17T03:12:42.735Z,2.40
2019-01-17T03:15:13.510Z,2.50
2019-01-17T03:17:44.301Z,2.50
2019-01-17T03:20:15.248Z,2.50
2019-01-17T03:22:45.747Z,2.60
2019-01-17T03:25:16.462Z,2.60
2019-01-17T03:27:47.130Z,2.70
2019-01-17T03:30:19.206Z,2.70
2019-01-17T03:32:49.763Z,2.70
2019-01-17T03:35:20.394Z,2.80
2019-01-17T03:37:50.985Z,2.80
2019-01-17T03:40:21.530Z,2.80
2019-01-17T03:42:52.001Z,2.90
2019-01-17T03:45:22.419Z,2.90
2019-01-17T03:47:52.911Z,3.00
2019-01-17T03:50:23.533Z,3.00
2019-01-17T03:52:54.112Z,3.00
2019-01-17T03:55:24.998Z,3.00
2019-01-17T03:57:56.343Z,3.10
2019-01-17T04:00:27.197Z,3.10
2019-01-17T04:02:57.839Z,3.10
2019-01-17T04:05:28.491Z,3.20
2019-01-17T04:07:58.935Z,3.20
2019-01-17T04:10:30.563Z,3.20
2019-01-17T04:13:02.299Z,3.30
2019-01-17T04:15:33.152Z,3.30
2019-01-17T04:18:03.640Z,3.30
2019-01-17T04:20:34.253Z,3.30
2019-01-17T04:23:04.841Z,3.20
2019-01-17T04:25:35.518Z,3.20
2019-01-17T04:28:06.083Z,3.10
2019-01-17T04:30:36.600Z,3.10
2019-01-17T04:33:07.299Z,3.00
2019-01-17T04:35:37.736Z,3.00
2019-01-17T04:38:08.217Z,3.00
2019-01-17T04:40:38.744Z,2.90
2019-01-17T04:43:09.444Z,2.90
2019-01-17T04:45:41.953Z,2.90
2019-01-17T04:48:12.553Z,2.90
2019-01-17T04:50:43.714Z,2.90
2019-01-17T04:53:15.431Z,2.90
2019-01-17T04:55:46.129Z,3.00
2019-01-17T04:58:16.846Z,3.00
2019-01-17T05:00:47.580Z,3.00
2019-01-17T05:03:18.054Z,3.00
2019-01-17T05:05:48.569Z,3.00
2019-01-17T05:08:19.498Z,3.00
2019-01-17T05:10:50.164Z,3.00
2019-01-17T05:13:21.148Z,3.00
2019-01-17T05:15:51.633Z,3.10
2019-01-17T05:18:22.286Z,3.10
2019-01-17T05:20:52.893Z,3.20
2019-01-17T05:23:24.489Z,3.20
2019-01-17T05:25:54.895Z,3.20
2019-01-17T05:28:25.386Z,3.30
2019-01-17T05:30:55.940Z,3.30
2019-01-17T05:33:26.437Z,3.30
2019-01-17T05:35:56.852Z,3.30
2019-01-17T05:38:27.412Z,3.30
2019-01-17T05:40:58.016Z,3.30
2019-01-17T05:43:29.326Z,3.40
2019-01-17T05:45:59.855Z,3.40
2019-01-17T05:48:30.448Z,3.40
2019-01-17T05:51:00.919Z,3.50
2019-01-17T05:53:31.635Z,3.50
2019-01-17T05:56:02.207Z,3.50
2019-01-17T05:58:33.941Z,3.60
2019-01-17T06:01:04.835Z,3.60
2019-01-17T06:03:35.511Z,3.60
2019-01-17T06:06:06.043Z,3.60
2019-01-17T06:08:36.640Z,3.60
2019-01-17T06:11:07.934Z,3.70
2019-01-17T06:13:38.475Z,3.70
2019-01-17T06:16:09.197Z,3.70
2019-01-17T06:18:39.886Z,3.80
2019-01-17T06:21:10.599Z,3.90
2019-01-17T06:23:42.683Z,3.90
2019-01-17T06:26:13.660Z,3.90
2019-01-17T06:28:44.255Z,3.90
2019-01-17T06:31:15.229Z,3.90
2019-01-17T06:33:45.896Z,3.90
2019-01-17T06:36:16.595Z,4.00
2019-01-17T06:38:47.174Z,4.00
2019-01-17T06:41:18.011Z,4.00
2019-01-17T06:43:48.631Z,4.10
2019-01-17T06:46:19.688Z,4.10
2019-01-17T06:48:50.467Z,4.20
2019-01-17T06:51:21.238Z,4.20
2019-01-17T06:53:52.031Z,4.30
2019-01-17T06:56:22.807Z,4.30
2019-01-17T06:58:53.415Z,4.30
2019-01-17T07:01:24.528Z,4.30
2019-01-17T07:03:55.278Z,4.30
2019-01-17T07:06:25.952Z,4.40
2019-01-17T07:08:56.685Z,4.40
2019-01-17T07:11:27.167Z,4.40
2019-01-17T07:13:57.823Z,4.40
2019-01-17T07:16:29.728Z,4.40
2019-01-17T07:19:00.349Z,4.40
2019-01-17T07:21:31.227Z,4.40
2019-01-17T07:24:02.060Z,4.40
2019-01-17T07:26:32.935Z,4.50
2019-01-17T07:29:03.687Z,4.50
2019-01-17T07:31:34.375Z,4.60
2019-01-17T07:34:05.365Z,4.70
2019-01-17T07:36:36.134Z,4.70
2019-01-17T07:39:08.482Z,4.80
2019-01-17T07:41:38.985Z,5.00
2019-01-17T07:44:09.520Z,5.20
2019-01-17T07:46:40.231Z,5.50
2019-01-17T07:49:10.729Z,5.70
2019-01-17T07:51:41.378Z,5.80
2019-01-17T07:54:11.910Z,6.10
2019-01-17T07:56:43.505Z,6.40
2019-01-17T07:59:13.974Z,6.60
2019-01-17T08:01:44.668Z,6.90
2019-01-17T08:04:15.402Z,7.30
2019-01-17T08:06:46.235Z,7.60
2019-01-17T08:09:16.806Z,7.80
2019-01-17T08:11:47.388Z,8.20
2019-01-17T08:14:18.123Z,8.40
2019-01-17T08:16:48.922Z,8.70
2019-01-17T08:19:19.738Z,8.90
2019-01-17T08:21:50.489Z,9.10
2019-01-17T08:24:21.052Z,9.30
2019-01-17T08:26:51.928Z,9.50
2019-01-17T08:29:22.480Z,9.70
2019-01-17T08:31:53.059Z,9.90
2019-01-17T08:34:28.254Z,10.10
2019-01-17T08:36:55.984Z,10.30
2019-01-17T08:39:26.840Z,10.50
2019-01-17T08:41:57.384Z,10.70
2019-01-17T08:44:28.180Z,10.90
2019-01-17T08:46:58.972Z,10.90
2019-01-17T08:49:29.434Z,10.90
2019-01-17T08:52:00.128Z,11.00
2019-01-17T08:54:30.733Z,10.90
2019-01-17T08:57:01.572Z,10.90
2019-01-17T08:59:32.331Z,10.90
2019-01-17T09:02:02.844Z,10.90
2019-01-17T09:04:33.501Z,10.90
2019-01-17T09:07:04.101Z,11.00
2019-01-17T09:09:34.937Z,11.10
2019-01-17T09:12:05.846Z,11.20
2019-01-17T09:14:36.655Z,11.60
2019-01-17T09:17:07.315Z,11.80
2019-01-17T09:19:38.147Z,11.90
2019-01-17T09:22:08.762Z,11.90
2019-01-17T09:24:39.467Z,11.80
2019-01-17T09:27:10.123Z,11.40
2019-01-17T09:29:41.077Z,11.00
2019-01-17T09:32:11.561Z,10.60
2019-01-17T09:34:42.303Z,10.30
2019-01-17T09:37:13.990Z,10.10
2019-01-17T09:39:44.556Z,9.90
2019-01-17T09:42:15.102Z,9.70
2019-01-17T09:44:46.072Z,9.40
2019-01-17T09:47:16.818Z,9.30
2019-01-17T09:49:47.536Z,9.20
2019-01-17T09:52:18.060Z,9.10
2019-01-17T09:54:48.948Z,9.10
2019-01-17T09:57:19.665Z,9.10
2019-01-17T09:59:50.846Z,9.20
2019-01-17T10:02:21.273Z,9.50
2019-01-17T10:04:51.832Z,9.60
2019-01-17T10:07:22.517Z,9.70
2019-01-17T10:09:53.197Z,9.80
2019-01-17T10:12:23.852Z,10.00
2019-01-17T10:14:54.763Z,10.10
2019-01-17T10:17:45.194Z,10.30
2019-01-17T10:20:45.759Z,10.50
2019-01-17T10:23:54.607Z,10.60
2019-01-17T10:26:45.049Z,10.70
2019-01-17T10:29:56.493Z,11.00
2019-01-17T10:32:59.957Z,11.20
2019-01-17T10:36:19.079Z,11.00
2019-01-17T10:39:27.825Z,11.00
2019-01-17T10:42:24.121Z,11.00
2019-01-17T10:45:42.145Z,10.90
2019-01-17T10:49:05.900Z,10.80
2019-01-17T10:52:16.261Z,10.70
2019-01-17T10:55:33.033Z,10.40
2019-01-17T10:58:31.226Z,9.90
2019-01-17T11:01:44.717Z,9.50
2019-01-17T11:04:59.579Z,9.30
2019-01-17T11:08:07.567Z,9.20
2019-01-17T11:11:17.867Z,9.20
2019-01-17T11:14:29.298Z,9.00
2019-01-17T11:17:38.501Z,8.80
2019-01-17T11:20:35.421Z,8.70
2019-01-17T11:23:23.826Z,8.60
2019-01-17T11:26:53.484Z,8.60
2019-01-17T11:30:13.789Z,8.60
2019-01-17T11:33:34.857Z,8.60
2019-01-17T11:36:28.347Z,8.50
2019-01-17T11:39:20.105Z,8.40
2019-01-17T11:42:20.330Z,8.50
2019-01-17T11:45:25.065Z,8.40
2019-01-17T11:48:50.049Z,8.30
2019-01-17T11:51:53.938Z,8.20
2019-01-17T11:55:02.773Z,8.10
2019-01-17T11:58:35.435Z,8.00
2019-01-17T12:01:38.725Z,7.90
2019-01-17T12:04:39.429Z,7.80
2019-01-17T12:07:15.861Z,7.80
2019-01-17T12:09:46.365Z,7.90
2019-01-17T12:12:21.808Z,7.90
2019-01-17T12:14:53.986Z,7.90
2019-01-17T12:17:24.569Z,8.00
2019-01-17T12:19:55.342Z,8.00
2019-01-17T12:22:25.869Z,8.10
2019-01-17T12:24:56.552Z,8.10
2019-01-17T12:27:27.164Z,8.10
2019-01-17T12:29:57.705Z,8.10
2019-01-17T12:32:28.283Z,8.20
2019-01-17T12:34:59.058Z,8.10
2019-01-17T12:37:29.846Z,8.10
2019-01-17T12:40:00.681Z,8.20
2019-01-17T12:42:31.454Z,8.30
2019-01-17T12:45:02.034Z,8.30
2019-01-17T12:47:32.568Z,8.30
2019-01-17T12:50:03.150Z,8.40
2019-01-17T12:52:34.007Z,8.40
2019-01-17T12:55:04.869Z,8.30
2019-01-17T12:57:36.660Z,8.30
2019-01-17T13:00:10.429Z,8.20
2019-01-17T13:02:41.293Z,8.20
2019-01-17T13:05:12.492Z,8.00
2019-01-17T13:07:42.988Z,8.00
2019-01-17T13:10:14.196Z,7.90
2019-01-17T13:12:44.882Z,7.80
2019-01-17T13:15:15.531Z,7.70
2019-01-17T13:17:46.140Z,7.70
2019-01-17T13:20:17.631Z,7.60
2019-01-17T13:22:48.577Z,7.70
2019-01-17T13:25:21.274Z,7.60
2019-01-17T13:27:52.961Z,7.60
2019-01-17T13:30:24.490Z,7.60
2019-01-17T13:32:55.144Z,7.60
2019-01-17T13:35:26.753Z,7.60
2019-01-17T13:37:57.508Z,7.60
2019-01-17T13:40:28.155Z,7.60
2019-01-17T13:42:58.702Z,7.60
2019-01-17T13:45:30.645Z,7.70
2019-01-17T13:48:01.759Z,7.70
2019-01-17T13:50:32.643Z,7.80
2019-01-17T13:53:03.482Z,7.80
2019-01-17T13:55:34.337Z,7.80
2019-01-17T13:58:05.241Z,7.80
2019-01-17T14:00:35.805Z,7.70
2019-01-17T14:03:06.890Z,7.70
2019-01-17T14:05:37.756Z,7.70
2019-01-17T14:08:08.434Z,7.60
2019-01-17T14:10:39.095Z,7.60
2019-01-17T14:13:09.805Z,7.50
2019-01-17T14:15:40.451Z,7.40
2019-01-17T14:18:11.165Z,7.40
2019-01-17T14:20:41.948Z,7.30
2019-01-17T14:23:12.598Z,7.20
2019-01-17T14:25:43.407Z,7.20
2019-01-17T14:28:13.951Z,7.10
2019-01-17T14:30:44.890Z,7.10
2019-01-17T14:33:15.486Z,7.00
2019-01-17T14:35:46.237Z,7.00
2019-01-17T14:38:16.817Z,7.00
2019-01-17T14:40:47.989Z,6.90
2019-01-17T14:43:18.494Z,6.90
2019-01-17T14:45:49.659Z,6.80
2019-01-17T14:48:22.086Z,6.80
2019-01-17T14:50:52.692Z,6.80
2019-01-17T14:53:23.228Z,6.80
2019-01-17T14:55:53.908Z,6.70
2019-01-17T14:58:26.115Z,6.70
2019-01-17T15:00:56.625Z,6.70
2019-01-17T15:03:27.593Z,6.70
2019-01-17T15:05:58.055Z,6.70
2019-01-17T15:08:28.761Z,6.70
2019-01-17T15:11:02.482Z,6.60
2019-01-17T15:13:37.651Z,6.60
2019-01-17T15:16:09.453Z,6.60
2019-01-17T15:18:40.343Z,6.60
2019-01-17T15:21:10.941Z,6.60
2019-01-17T15:23:41.737Z,6.60
2019-01-17T15:26:12.442Z,6.60
2019-01-17T15:28:43.304Z,6.60
2019-01-17T15:31:14.279Z,6.60
2019-01-17T15:33:44.953Z,6.50
2019-01-17T15:36:15.830Z,6.50
2019-01-17T15:38:46.305Z,6.50
2019-01-17T15:41:18.604Z,6.50
2019-01-17T15:43:49.103Z,6.50
2019-01-17T15:46:19.605Z,6.50
2019-01-17T15:48:50.125Z,6.40
2019-01-17T15:51:21.374Z,6.40
2019-01-17T15:53:52.068Z,6.40
2019-01-17T15:56:24.190Z,6.40
2019-01-17T15:58:54.654Z,6.30
2019-01-17T16:01:27.105Z,6.30
2019-01-17T16:03:57.706Z,6.30
2019-01-17T16:06:28.386Z,6.30
2019-01-17T16:08:59.013Z,6.20
2019-01-17T16:11:29.694Z,6.20
2019-01-17T16:14:00.146Z,6.20
2019-01-17T16:16:30.941Z,6.20
2019-01-17T16:19:01.630Z,6.20
2019-01-17T16:21:32.142Z,6.20
2019-01-17T16:24:02.545Z,6.20
2019-01-17T16:26:33.889Z,6.20
2019-01-17T16:29:04.551Z,6.20
2019-01-17T16:31:35.017Z,6.20
2019-01-17T16:34:05.785Z,6.20
2019-01-17T16:36:37.384Z,6.30
2019-01-17T16:39:10.028Z,6.30
2019-01-17T16:41:40.713Z,6.30
2019-01-17T16:44:11.291Z,6.30
2019-01-17T16:46:41.891Z,6.30
2019-01-17T16:49:12.706Z,6.40
2019-01-17T16:51:43.356Z,6.40
2019-01-17T16:54:14.037Z,6.40
2019-01-17T16:56:44.719Z,6.40
2019-01-17T16:59:15.341Z,6.40
2019-01-17T17:01:46.061Z,6.40
2019-01-17T17:04:16.613Z,6.40
2019-01-17T17:06:47.329Z,6.40
2019-01-17T17:09:19.332Z,6.40
2019-01-17T17:11:49.930Z,6.40
2019-01-17T17:14:20.352Z,6.40
2019-01-17T17:16:51.083Z,6.30
2019-01-17T17:19:21.958Z,6.30
2019-01-17T17:21:52.886Z,6.20
2019-01-17T17:24:25.141Z,6.20
2019-01-17T17:26:55.960Z,6.20
2019-01-17T17:29:28.260Z,6.20
2019-01-17T17:31:59.214Z,6.10
2019-01-17T17:34:29.685Z,6.10
2019-01-17T17:37:00.885Z,6.10
2019-01-17T17:39:31.785Z,6.10
2019-01-17T17:42:04.141Z,6.10
2019-01-17T17:44:34.834Z,6.10
2019-01-17T17:47:05.663Z,6.10
2019-01-17T17:49:36.600Z,6.10
2019-01-17T17:52:07.400Z,6.10
2019-01-17T17:54:38.149Z,6.10
2019-01-17T17:57:09.023Z,6.10
2019-01-17T17:59:40.236Z,6.10
2019-01-17T18:02:19.415Z,6.10
2019-01-17T18:04:50.061Z,6.10
2019-01-17T18:07:20.686Z,6.00
2019-01-17T18:09:51.417Z,6.00
2019-01-17T18:12:22.276Z,6.00
2019-01-17T18:14:52.806Z,6.00
2019-01-17T18:17:23.539Z,6.00
2019-01-17T18:19:54.738Z,6.00
2019-01-17T18:22:25.471Z,5.90
2019-01-17T18:24:57.171Z,5.90
2019-01-17T18:27:27.801Z,5.90
2019-01-17T18:29:58.430Z,5.90
2019-01-17T18:32:29.257Z,5.90
2019-01-17T18:34:59.916Z,5.90
2019-01-17T18:37:30.775Z,5.90
2019-01-17T18:40:01.420Z,5.90
2019-01-17T18:42:32.382Z,5.80
2019-01-17T18:45:03.068Z,5.80
2019-01-17T18:47:33.746Z,5.80
2019-01-17T18:50:04.917Z,5.80
2019-01-17T18:52:36.427Z,5.80
2019-01-17T18:55:07.629Z,5.80
2019-01-17T18:57:38.420Z,5.80
2019-01-17T19:00:18.624Z,5.80
2019-01-17T19:02:49.654Z,5.90
2019-01-17T19:05:21.983Z,6.00
2019-01-17T19:07:53.036Z,6.00
2019-01-17T19:10:24.072Z,6.10
2019-01-17T19:12:55.090Z,6.10
2019-01-17T19:15:28.346Z,6.10
2019-01-17T19:17:58.839Z,6.10
2019-01-17T19:20:29.950Z,6.20
2019-01-17T19:23:00.893Z,6.20
2019-01-17T19:25:31.691Z,6.30
2019-01-17T19:28:02.558Z,6.30
2019-01-17T19:30:33.469Z,6.30
2019-01-17T19:33:05.356Z,6.40
2019-01-17T19:35:36.173Z,6.40
2019-01-17T19:38:06.938Z,6.50
2019-01-17T19:40:37.824Z,6.50
2019-01-17T19:43:08.391Z,6.60
2019-01-17T19:45:39.115Z,6.60
2019-01-17T19:48:09.739Z,6.60
2019-01-17T19:50:40.757Z,6.70
2019-01-17T19:53:11.822Z,6.70
2019-01-17T19:55:42.609Z,6.80
2019-01-17T19:58:13.279Z,6.80
2019-01-17T20:00:43.930Z,6.80
2019-01-17T20:03:14.907Z,6.80
2019-01-17T20:05:45.870Z,6.90
2019-01-17T20:08:16.562Z,6.90
2019-01-17T20:10:47.365Z,7.00
2019-01-17T20:13:18.077Z,7.00
2019-01-17T20:15:50.317Z,7.00
2019-01-17T20:18:21.251Z,7.00
2019-01-17T20:20:52.444Z,7.00
2019-01-17T20:23:24.330Z,7.00
2019-01-17T20:25:54.930Z,7.00
2019-01-17T20:28:26.031Z,7.00
2019-01-17T20:30:57.030Z,7.10
2019-01-17T20:33:28.060Z,7.10
2019-01-17T20:36:33.472Z,7.10
2019-01-17T20:39:05.095Z,7.10
2019-01-17T20:41:36.340Z,7.10
2019-01-17T20:44:07.107Z,7.10
2019-01-17T20:46:38.147Z,7.10
2019-01-17T20:49:08.912Z,7.10
2019-01-17T20:51:39.693Z,7.10
2019-01-17T20:54:10.386Z,7.10
2019-01-17T20:56:41.281Z,7.10
2019-01-17T20:59:12.067Z,7.20
2019-01-17T21:01:56.015Z,7.30
2019-01-17T21:04:27.047Z,7.30
2019-01-17T21:06:57.848Z,7.30
2019-01-17T21:09:28.751Z,7.30
2019-01-17T21:11:59.518Z,7.30
2019-01-17T21:14:30.327Z,7.40
2019-01-17T21:17:01.000Z,7.40
2019-01-17T21:19:32.078Z,7.40
2019-01-17T21:22:02.904Z,7.40
2019-01-17T21:24:34.014Z,7.50
2019-01-17T21:27:04.792Z,7.50
2019-01-17T21:29:35.506Z,7.50
2019-01-17T21:32:06.297Z,7.50
2019-01-17T21:34:36.934Z,7.50
2019-01-17T21:37:07.740Z,7.60
2019-01-17T21:39:38.426Z,7.60
2019-01-17T21:42:09.102Z,7.50
2019-01-17T21:44:40.330Z,7.50
2019-01-17T21:47:11.346Z,7.60
2019-01-17T21:49:43.286Z,7.50
2019-01-17T21:52:14.210Z,7.50
2019-01-17T21:54:44.864Z,7.50
2019-01-17T21:57:15.500Z,7.50
2019-01-17T21:59:46.560Z,7.50
2019-01-17T22:02:17.462Z,7.50
2019-01-17T22:04:49.092Z,7.50
2019-01-17T22:07:20.278Z,7.50
2019-01-17T22:09:51.516Z,7.50
2019-01-17T22:12:22.188Z,7.40
2019-01-17T22:14:52.879Z,7.40
2019-01-17T22:17:23.949Z,7.40
2019-01-17T22:19:55.063Z,7.40
2019-01-17T22:22:25.710Z,7.40
2019-01-17T22:24:56.483Z,7.40
2019-01-17T22:27:27.238Z,7.40
2019-01-17T22:29:58.189Z,7.40
2019-01-17T22:32:28.961Z,7.40
2019-01-17T22:34:59.618Z,7.40
2019-01-17T22:37:30.347Z,7.40
2019-01-17T22:40:01.282Z,7.40
2019-01-17T22:42:31.929Z,7.40
2019-01-17T22:45:02.989Z,7.40
2019-01-17T22:47:33.668Z,7.40
2019-01-17T22:50:05.363Z,7.40
2019-01-17T22:52:35.847Z,7.40
2019-01-17T22:55:07.228Z,7.40
2019-01-17T22:57:39.092Z,7.30
2019-01-17T23:00:34.755Z,7.30
2019-01-17T23:03:06.998Z,7.30
2019-01-17T23:05:37.665Z,7.20
2019-01-17T23:08:08.497Z,7.20
2019-01-17T23:10:39.278Z,7.20
2019-01-17T23:13:10.097Z,7.20
2019-01-17T23:15:41.134Z,7.20
2019-01-17T23:18:11.974Z,7.10
2019-01-17T23:20:42.642Z,7.10
2019-01-17T23:23:13.758Z,7.10
2019-01-17T23:25:44.449Z,7.10
2019-01-17T23:28:15.568Z,7.00
2019-01-17T23:30:46.289Z,7.00
2019-01-17T23:33:17.010Z,7.00
2019-01-17T23:35:47.723Z,7.00
2019-01-17T23:38:18.405Z,6.90
2019-01-17T23:40:50.130Z,6.90
2019-01-17T23:43:20.801Z,6.90
2019-01-17T23:45:51.653Z,6.90
2019-01-17T23:48:22.265Z,6.90
2019-01-17T23:50:52.708Z,6.80
2019-01-17T23:53:23.293Z,6.80
2019-01-17T23:55:53.703Z,6.80
2019-01-17T23:58:24.169Z,6.80
